sensor_id;sensor_type;location;lat;lon;timestamp;P1;durP1;ratioP1;P2;durP2;ratioP2
28304;SDS011;15569;42.652;23.040;2023-02-28T00:00:21;11.60;;;6.70;;
28304;SDS011;15569;42.652;23.040;2023-02-28T00:02:47;16.55;;;6.25;;
28304;SDS011;15569;42.652;23.040;2023-02-28T00:05:13;14.68;;;6.20;;
28304;SDS011;15569;42.652;23.040;2023-02-28T00:07:41;11.90;;;6.47;;
28304;SDS011;15569;42.652;23.040;2023-02-28T00:10:08;15.10;;;7.18;;
28304;SDS011;15569;42.652;23.040;2023-02-28T00:12:35;12.40;;;7.50;;
28304;SDS011;15569;42.652;23.040;2023-02-28T00:15:01;12.98;;;5.43;;
28304;SDS011;15569;42.652;23.040;2023-02-28T00:17:29;10.57;;;5.00;;
28304;SDS011;15569;42.652;23.040;2023-02-28T00:19:55;16.23;;;5.70;;
28304;SDS011;15569;42.652;23.040;2023-02-28T00:22:22;9.18;;;4.13;;
28304;SDS011;15569;42.652;23.040;2023-02-28T00:24:48;8.93;;;4.63;;
28304;SDS011;15569;42.652;23.040;2023-02-28T00:27:14;11.98;;;4.82;;
28304;SDS011;15569;42.652;23.040;2023-02-28T00:29:39;7.22;;;4.35;;
28304;SDS011;15569;42.652;23.040;2023-02-28T00:32:05;10.45;;;4.20;;
28304;SDS011;15569;42.652;23.040;2023-02-28T00:34:32;5.35;;;3.35;;
28304;SDS011;15569;42.652;23.040;2023-02-28T00:37:03;7.22;;;3.90;;
28304;SDS011;15569;42.652;23.040;2023-02-28T00:39:34;10.25;;;4.80;;
28304;SDS011;15569;42.652;23.040;2023-02-28T00:42:01;11.20;;;6.65;;
28304;SDS011;15569;42.652;23.040;2023-02-28T00:44:27;6.03;;;3.83;;
28304;SDS011;15569;42.652;23.040;2023-02-28T00:46:53;7.10;;;3.58;;
28304;SDS011;15569;42.652;23.040;2023-02-28T00:49:19;6.25;;;3.72;;
28304;SDS011;15569;42.652;23.040;2023-02-28T00:51:45;12.13;;;4.95;;
28304;SDS011;15569;42.652;23.040;2023-02-28T00:54:11;7.18;;;3.88;;
28304;SDS011;15569;42.652;23.040;2023-02-28T00:56:36;7.57;;;4.05;;
28304;SDS011;15569;42.652;23.040;2023-02-28T00:59:01;10.55;;;4.10;;
28304;SDS011;15569;42.652;23.040;2023-02-28T01:01:27;8.23;;;4.22;;
28304;SDS011;15569;42.652;23.040;2023-02-28T01:03:52;22.13;;;5.15;;
28304;SDS011;15569;42.652;23.040;2023-02-28T01:06:17;48.33;;;9.18;;
28304;SDS011;15569;42.652;23.040;2023-02-28T01:08:43;16.58;;;5.25;;
28304;SDS011;15569;42.652;23.040;2023-02-28T01:11:09;21.73;;;5.57;;
28304;SDS011;15569;42.652;23.040;2023-02-28T01:13:37;24.25;;;5.63;;
28304;SDS011;15569;42.652;23.040;2023-02-28T01:16:02;22.95;;;6.20;;
28304;SDS011;15569;42.652;23.040;2023-02-28T01:18:28;18.08;;;5.60;;
28304;SDS011;15569;42.652;23.040;2023-02-28T01:20:54;14.85;;;4.88;;
28304;SDS011;15569;42.652;23.040;2023-02-28T01:23:20;14.77;;;5.55;;
28304;SDS011;15569;42.652;23.040;2023-02-28T01:25:48;12.65;;;5.63;;
28304;SDS011;15569;42.652;23.040;2023-02-28T01:28:14;22.67;;;5.85;;
28304;SDS011;15569;42.652;23.040;2023-02-28T01:30:40;21.20;;;6.65;;
28304;SDS011;15569;42.652;23.040;2023-02-28T01:33:06;29.88;;;6.50;;
28304;SDS011;15569;42.652;23.040;2023-02-28T01:35:34;31.77;;;8.00;;
28304;SDS011;15569;42.652;23.040;2023-02-28T01:38:01;20.42;;;8.98;;
28304;SDS011;15569;42.652;23.040;2023-02-28T01:40:27;26.55;;;8.80;;
28304;SDS011;15569;42.652;23.040;2023-02-28T01:42:52;32.85;;;11.82;;
28304;SDS011;15569;42.652;23.040;2023-02-28T01:47:43;43.55;;;14.45;;
28304;SDS011;15569;42.652;23.040;2023-02-28T01:50:12;40.83;;;13.48;;
28304;SDS011;15569;42.652;23.040;2023-02-28T01:52:41;49.97;;;18.65;;
28304;SDS011;15569;42.652;23.040;2023-02-28T01:55:09;45.10;;;16.25;;
28304;SDS011;15569;42.652;23.040;2023-02-28T01:57:40;30.33;;;10.55;;
28304;SDS011;15569;42.652;23.040;2023-02-28T02:00:12;31.50;;;10.57;;
28304;SDS011;15569;42.652;23.040;2023-02-28T02:02:43;16.95;;;7.97;;
28304;SDS011;15569;42.652;23.040;2023-02-28T02:05:14;17.83;;;6.22;;
28304;SDS011;15569;42.652;23.040;2023-02-28T02:07:43;17.17;;;5.38;;
28304;SDS011;15569;42.652;23.040;2023-02-28T02:15:19;14.40;;;6.65;;
28304;SDS011;15569;42.652;23.040;2023-02-28T02:17:52;17.20;;;6.75;;
28304;SDS011;15569;42.652;23.040;2023-02-28T02:42:53;32.13;;;8.95;;
28304;SDS011;15569;42.652;23.040;2023-02-28T02:45:48;47.67;;;10.18;;
28304;SDS011;15569;42.652;23.040;2023-02-28T02:48:18;35.70;;;8.65;;
28304;SDS011;15569;42.652;23.040;2023-02-28T02:50:48;29.20;;;8.07;;
28304;SDS011;15569;42.652;23.040;2023-02-28T02:53:17;22.60;;;6.68;;
28304;SDS011;15569;42.652;23.040;2023-02-28T02:55:46;28.77;;;9.52;;
28304;SDS011;15569;42.652;23.040;2023-02-28T02:58:18;19.35;;;8.38;;
28304;SDS011;15569;42.652;23.040;2023-02-28T03:00:46;29.88;;;10.77;;
28304;SDS011;15569;42.652;23.040;2023-02-28T03:03:16;22.60;;;8.70;;
28304;SDS011;15569;42.652;23.040;2023-02-28T03:05:49;34.47;;;6.50;;
28304;SDS011;15569;42.652;23.040;2023-02-28T03:08:15;10.80;;;5.68;;
28304;SDS011;15569;42.652;23.040;2023-02-28T03:10:42;22.05;;;6.90;;
28304;SDS011;15569;42.652;23.040;2023-02-28T03:15:58;21.38;;;9.13;;
28304;SDS011;15569;42.652;23.040;2023-02-28T03:21:45;20.15;;;9.65;;
28304;SDS011;15569;42.652;23.040;2023-02-28T03:24:06;32.60;;;9.30;;
28304;SDS011;15569;42.652;23.040;2023-02-28T03:26:58;28.08;;;10.60;;
28304;SDS011;15569;42.652;23.040;2023-02-28T03:29:55;33.42;;;8.75;;
28304;SDS011;15569;42.652;23.040;2023-02-28T03:32:24;23.73;;;12.05;;
28304;SDS011;15569;42.652;23.040;2023-02-28T03:34:55;29.80;;;12.45;;
28304;SDS011;15569;42.652;23.040;2023-02-28T03:37:25;37.13;;;12.57;;
28304;SDS011;15569;42.652;23.040;2023-02-28T03:40:01;48.72;;;13.43;;
28304;SDS011;15569;42.652;23.040;2023-02-28T03:42:33;32.90;;;10.65;;
28304;SDS011;15569;42.652;23.040;2023-02-28T03:45:05;29.58;;;10.55;;
28304;SDS011;15569;42.652;23.040;2023-02-28T03:47:39;22.83;;;7.78;;
28304;SDS011;15569;42.652;23.040;2023-02-28T03:52:50;29.65;;;8.30;;
28304;SDS011;15569;42.652;23.040;2023-02-28T03:55:20;32.92;;;9.07;;
28304;SDS011;15569;42.652;23.040;2023-02-28T03:58:05;24.17;;;9.00;;
28304;SDS011;15569;42.652;23.040;2023-02-28T04:00:38;21.98;;;7.15;;
28304;SDS011;15569;42.652;23.040;2023-02-28T04:03:08;21.05;;;8.93;;
28304;SDS011;15569;42.652;23.040;2023-02-28T04:05:34;20.70;;;7.72;;
28304;SDS011;15569;42.652;23.040;2023-02-28T04:08:19;14.63;;;6.25;;
28304;SDS011;15569;42.652;23.040;2023-02-28T04:10:47;18.23;;;6.40;;
28304;SDS011;15569;42.652;23.040;2023-02-28T04:13:19;13.48;;;6.57;;
28304;SDS011;15569;42.652;23.040;2023-02-28T04:15:44;21.83;;;10.25;;
28304;SDS011;15569;42.652;23.040;2023-02-28T04:18:09;30.83;;;11.95;;
28304;SDS011;15569;42.652;23.040;2023-02-28T04:20:35;18.65;;;6.60;;
28304;SDS011;15569;42.652;23.040;2023-02-28T04:23:01;12.98;;;5.07;;
28304;SDS011;15569;42.652;23.040;2023-02-28T04:25:26;15.90;;;5.32;;
28304;SDS011;15569;42.652;23.040;2023-02-28T04:27:52;9.05;;;4.70;;
28304;SDS011;15569;42.652;23.040;2023-02-28T04:30:17;13.73;;;5.47;;
28304;SDS011;15569;42.652;23.040;2023-02-28T04:32:43;12.15;;;5.07;;
28304;SDS011;15569;42.652;23.040;2023-02-28T04:35:08;10.88;;;3.88;;
28304;SDS011;15569;42.652;23.040;2023-02-28T04:37:33;11.73;;;4.15;;
28304;SDS011;15569;42.652;23.040;2023-02-28T04:40:00;16.35;;;4.53;;
28304;SDS011;15569;42.652;23.040;2023-02-28T04:42:26;7.55;;;3.40;;
28304;SDS011;15569;42.652;23.040;2023-02-28T04:44:51;7.28;;;3.17;;
28304;SDS011;15569;42.652;23.040;2023-02-28T04:47:17;26.65;;;3.83;;
28304;SDS011;15569;42.652;23.040;2023-02-28T04:49:42;10.55;;;3.92;;
28304;SDS011;15569;42.652;23.040;2023-02-28T04:52:08;8.15;;;3.78;;
28304;SDS011;15569;42.652;23.040;2023-02-28T04:54:35;17.25;;;4.35;;
28304;SDS011;15569;42.652;23.040;2023-02-28T04:57:00;15.93;;;4.38;;
28304;SDS011;15569;42.652;23.040;2023-02-28T04:59:26;11.98;;;5.30;;
28304;SDS011;15569;42.652;23.040;2023-02-28T05:01:51;12.55;;;4.45;;
28304;SDS011;15569;42.652;23.040;2023-02-28T05:04:17;12.48;;;4.50;;
28304;SDS011;15569;42.652;23.040;2023-02-28T05:06:42;10.57;;;4.22;;
28304;SDS011;15569;42.652;23.040;2023-02-28T05:09:08;10.32;;;4.32;;
28304;SDS011;15569;42.652;23.040;2023-02-28T05:11:34;8.73;;;4.70;;
28304;SDS011;15569;42.652;23.040;2023-02-28T05:14:03;12.60;;;4.25;;
28304;SDS011;15569;42.652;23.040;2023-02-28T05:16:30;15.02;;;4.90;;
28304;SDS011;15569;42.652;23.040;2023-02-28T05:18:57;16.48;;;7.43;;
28304;SDS011;15569;42.652;23.040;2023-02-28T05:21:26;15.45;;;5.82;;
28304;SDS011;15569;42.652;23.040;2023-02-28T05:23:54;25.42;;;10.05;;
28304;SDS011;15569;42.652;23.040;2023-02-28T05:26:21;23.85;;;9.63;;
28304;SDS011;15569;42.652;23.040;2023-02-28T05:28:47;21.85;;;10.07;;
28304;SDS011;15569;42.652;23.040;2023-02-28T05:31:12;24.65;;;8.48;;
28304;SDS011;15569;42.652;23.040;2023-02-28T05:33:38;23.48;;;6.25;;
28304;SDS011;15569;42.652;23.040;2023-02-28T05:36:04;18.17;;;6.85;;
28304;SDS011;15569;42.652;23.040;2023-02-28T05:38:30;21.77;;;7.38;;
28304;SDS011;15569;42.652;23.040;2023-02-28T05:40:56;20.25;;;7.00;;
28304;SDS011;15569;42.652;23.040;2023-02-28T05:43:21;16.50;;;6.03;;
28304;SDS011;15569;42.652;23.040;2023-02-28T05:45:47;18.35;;;5.93;;
28304;SDS011;15569;42.652;23.040;2023-02-28T05:48:12;27.20;;;5.90;;
28304;SDS011;15569;42.652;23.040;2023-02-28T05:50:38;12.07;;;5.32;;
28304;SDS011;15569;42.652;23.040;2023-02-28T05:53:03;13.40;;;5.55;;
28304;SDS011;15569;42.652;23.040;2023-02-28T05:55:29;11.85;;;5.05;;
28304;SDS011;15569;42.652;23.040;2023-02-28T05:57:54;16.80;;;4.90;;
28304;SDS011;15569;42.652;23.040;2023-02-28T06:00:20;14.80;;;4.80;;
28304;SDS011;15569;42.652;23.040;2023-02-28T06:02:46;19.80;;;5.68;;
28304;SDS011;15569;42.652;23.040;2023-02-28T06:05:16;12.18;;;5.10;;
28304;SDS011;15569;42.652;23.040;2023-02-28T06:10:08;24.45;;;6.30;;
28304;SDS011;15569;42.652;23.040;2023-02-28T06:15:03;30.77;;;7.82;;
28304;SDS011;15569;42.652;23.040;2023-02-28T06:17:29;22.27;;;8.07;;
28304;SDS011;15569;42.652;23.040;2023-02-28T06:19:54;21.20;;;6.90;;
28304;SDS011;15569;42.652;23.040;2023-02-28T06:22:20;25.13;;;7.65;;
28304;SDS011;15569;42.652;23.040;2023-02-28T06:24:45;22.27;;;7.20;;
28304;SDS011;15569;42.652;23.040;2023-02-28T06:27:10;21.27;;;6.55;;
28304;SDS011;15569;42.652;23.040;2023-02-28T06:29:36;20.77;;;7.15;;
28304;SDS011;15569;42.652;23.040;2023-02-28T06:32:04;23.10;;;7.13;;
28304;SDS011;15569;42.652;23.040;2023-02-28T06:34:30;16.98;;;7.07;;
28304;SDS011;15569;42.652;23.040;2023-02-28T06:36:56;24.48;;;8.55;;
28304;SDS011;15569;42.652;23.040;2023-02-28T06:39:21;23.65;;;7.75;;
28304;SDS011;15569;42.652;23.040;2023-02-28T06:41:47;22.77;;;7.82;;
28304;SDS011;15569;42.652;23.040;2023-02-28T06:44:16;31.75;;;8.55;;
28304;SDS011;15569;42.652;23.040;2023-02-28T06:46:42;35.40;;;9.43;;
28304;SDS011;15569;42.652;23.040;2023-02-28T06:49:09;34.03;;;9.48;;
28304;SDS011;15569;42.652;23.040;2023-02-28T06:51:36;31.33;;;9.27;;
28304;SDS011;15569;42.652;23.040;2023-02-28T06:54:03;28.08;;;9.68;;
28304;SDS011;15569;42.652;23.040;2023-02-28T06:56:29;27.90;;;9.25;;
28304;SDS011;15569;42.652;23.040;2023-02-28T06:58:54;21.65;;;8.38;;
28304;SDS011;15569;42.652;23.040;2023-02-28T07:03:23;32.47;;;10.48;;
28304;SDS011;15569;42.652;23.040;2023-02-28T07:05:48;28.52;;;9.77;;
28304;SDS011;15569;42.652;23.040;2023-02-28T07:08:14;30.63;;;10.27;;
28304;SDS011;15569;42.652;23.040;2023-02-28T07:10:40;31.48;;;11.10;;
28304;SDS011;15569;42.652;23.040;2023-02-28T07:13:07;24.35;;;8.98;;
28304;SDS011;15569;42.652;23.040;2023-02-28T07:15:33;29.98;;;8.85;;
28304;SDS011;15569;42.652;23.040;2023-02-28T07:18:00;31.10;;;8.32;;
28304;SDS011;15569;42.652;23.040;2023-02-28T07:20:26;39.08;;;10.23;;
28304;SDS011;15569;42.652;23.040;2023-02-28T07:22:51;34.35;;;11.40;;
28304;SDS011;15569;42.652;23.040;2023-02-28T07:25:23;27.42;;;9.25;;
28304;SDS011;15569;42.652;23.040;2023-02-28T07:27:49;26.02;;;8.32;;
28304;SDS011;15569;42.652;23.040;2023-02-28T07:30:15;35.17;;;10.10;;
28304;SDS011;15569;42.652;23.040;2023-02-28T07:32:41;25.15;;;8.23;;
28304;SDS011;15569;42.652;23.040;2023-02-28T07:35:06;40.72;;;11.23;;
28304;SDS011;15569;42.652;23.040;2023-02-28T07:37:32;32.58;;;9.35;;
28304;SDS011;15569;42.652;23.040;2023-02-28T07:40:02;30.77;;;8.80;;
28304;SDS011;15569;42.652;23.040;2023-02-28T07:42:37;32.92;;;9.93;;
28304;SDS011;15569;42.652;23.040;2023-02-28T07:45:03;43.25;;;10.55;;
28304;SDS011;15569;42.652;23.040;2023-02-28T07:47:29;32.65;;;8.27;;
28304;SDS011;15569;42.652;23.040;2023-02-28T07:49:55;32.35;;;9.70;;
28304;SDS011;15569;42.652;23.040;2023-02-28T07:52:21;28.77;;;10.50;;
28304;SDS011;15569;42.652;23.040;2023-02-28T07:54:48;26.88;;;9.25;;
28304;SDS011;15569;42.652;23.040;2023-02-28T07:57:14;31.92;;;9.88;;
28304;SDS011;15569;42.652;23.040;2023-02-28T07:59:39;29.65;;;9.15;;
28304;SDS011;15569;42.652;23.040;2023-02-28T08:02:05;27.42;;;8.23;;
28304;SDS011;15569;42.652;23.040;2023-02-28T08:04:33;34.00;;;9.35;;
28304;SDS011;15569;42.652;23.040;2023-02-28T08:06:58;27.35;;;9.35;;
28304;SDS011;15569;42.652;23.040;2023-02-28T08:09:24;49.30;;;16.60;;
28304;SDS011;15569;42.652;23.040;2023-02-28T08:11:49;28.55;;;8.30;;
28304;SDS011;15569;42.652;23.040;2023-02-28T08:14:14;42.95;;;14.85;;
28304;SDS011;15569;42.652;23.040;2023-02-28T08:16:40;49.90;;;17.75;;
28304;SDS011;15569;42.652;23.040;2023-02-28T08:19:07;39.15;;;15.75;;
28304;SDS011;15569;42.652;23.040;2023-02-28T08:21:33;34.78;;;9.60;;
28304;SDS011;15569;42.652;23.040;2023-02-28T08:23:59;27.77;;;10.15;;
28304;SDS011;15569;42.652;23.040;2023-02-28T08:26:24;30.35;;;9.63;;
28304;SDS011;15569;42.652;23.040;2023-02-28T08:28:49;27.33;;;9.20;;
28304;SDS011;15569;42.652;23.040;2023-02-28T08:31:16;27.45;;;11.02;;
28304;SDS011;15569;42.652;23.040;2023-02-28T08:33:42;27.10;;;11.90;;
28304;SDS011;15569;42.652;23.040;2023-02-28T08:36:09;34.38;;;10.77;;
28304;SDS011;15569;42.652;23.040;2023-02-28T08:38:35;29.88;;;10.88;;
28304;SDS011;15569;42.652;23.040;2023-02-28T08:41:02;25.55;;;9.90;;
28304;SDS011;15569;42.652;23.040;2023-02-28T08:43:32;27.58;;;10.20;;
28304;SDS011;15569;42.652;23.040;2023-02-28T08:45:58;35.65;;;13.13;;
28304;SDS011;15569;42.652;23.040;2023-02-28T08:48:24;42.33;;;12.90;;
28304;SDS011;15569;42.652;23.040;2023-02-28T08:51:03;34.72;;;10.52;;
28304;SDS011;15569;42.652;23.040;2023-02-28T08:53:30;30.88;;;11.18;;
28304;SDS011;15569;42.652;23.040;2023-02-28T08:56:00;33.25;;;10.68;;
28304;SDS011;15569;42.652;23.040;2023-02-28T08:58:28;23.58;;;10.38;;
28304;SDS011;15569;42.652;23.040;2023-02-28T09:03:18;30.67;;;11.48;;
28304;SDS011;15569;42.652;23.040;2023-02-28T09:05:57;27.02;;;10.85;;
28304;SDS011;15569;42.652;23.040;2023-02-28T09:10:50;34.85;;;12.23;;
28304;SDS011;15569;42.652;23.040;2023-02-28T09:13:17;29.83;;;12.60;;
28304;SDS011;15569;42.652;23.040;2023-02-28T09:15:43;25.70;;;11.48;;
28304;SDS011;15569;42.652;23.040;2023-02-28T09:18:08;37.90;;;13.15;;
28304;SDS011;15569;42.652;23.040;2023-02-28T09:20:33;34.00;;;13.63;;
28304;SDS011;15569;42.652;23.040;2023-02-28T09:23:02;29.95;;;12.07;;
28304;SDS011;15569;42.652;23.040;2023-02-28T09:25:28;35.38;;;13.85;;
28304;SDS011;15569;42.652;23.040;2023-02-28T09:27:53;46.17;;;15.23;;
28304;SDS011;15569;42.652;23.040;2023-02-28T09:30:18;43.80;;;16.75;;
28304;SDS011;15569;42.652;23.040;2023-02-28T09:36:00;42.05;;;14.75;;
28304;SDS011;15569;42.652;23.040;2023-02-28T09:38:27;48.33;;;16.55;;
28304;SDS011;15569;42.652;23.040;2023-02-28T09:43:24;28.52;;;12.23;;
28304;SDS011;15569;42.652;23.040;2023-02-28T09:45:56;33.67;;;14.50;;
28304;SDS011;15569;42.652;23.040;2023-02-28T09:48:45;31.95;;;12.90;;
28304;SDS011;15569;42.652;23.040;2023-02-28T09:53:41;30.75;;;11.30;;
28304;SDS011;15569;42.652;23.040;2023-02-28T09:56:08;36.67;;;14.27;;
28304;SDS011;15569;42.652;23.040;2023-02-28T09:59:10;35.22;;;12.45;;
28304;SDS011;15569;42.652;23.040;2023-02-28T10:09:43;34.15;;;13.32;;
28304;SDS011;15569;42.652;23.040;2023-02-28T10:12:11;33.28;;;11.90;;
28304;SDS011;15569;42.652;23.040;2023-02-28T10:14:40;36.85;;;13.55;;
28304;SDS011;15569;42.652;23.040;2023-02-28T10:17:11;71.47;;;26.73;;
28304;SDS011;15569;42.652;23.040;2023-02-28T10:19:41;64.55;;;25.02;;
28304;SDS011;15569;42.652;23.040;2023-02-28T10:25:17;32.10;;;13.70;;
28304;SDS011;15569;42.652;23.040;2023-02-28T10:27:45;28.65;;;13.23;;
28304;SDS011;15569;42.652;23.040;2023-02-28T10:30:11;34.38;;;13.70;;
28304;SDS011;15569;42.652;23.040;2023-02-28T10:32:38;40.33;;;15.75;;
28304;SDS011;15569;42.652;23.040;2023-02-28T10:35:15;43.35;;;14.45;;
28304;SDS011;15569;42.652;23.040;2023-02-28T10:37:47;41.30;;;16.10;;
28304;SDS011;15569;42.652;23.040;2023-02-28T10:42:54;47.55;;;16.50;;
28304;SDS011;15569;42.652;23.040;2023-02-28T10:45:20;43.22;;;17.00;;
28304;SDS011;15569;42.652;23.040;2023-02-28T10:47:56;50.05;;;18.65;;
28304;SDS011;15569;42.652;23.040;2023-02-28T10:55:40;158.77;;;55.88;;
28304;SDS011;15569;42.652;23.040;2023-02-28T10:58:27;76.85;;;32.72;;
28304;SDS011;15569;42.652;23.040;2023-02-28T11:01:17;51.50;;;20.23;;
28304;SDS011;15569;42.652;23.040;2023-02-28T11:03:44;48.42;;;17.50;;
28304;SDS011;15569;42.652;23.040;2023-02-28T11:06:15;56.15;;;21.13;;
28304;SDS011;15569;42.652;23.040;2023-02-28T13:42:15;30.70;;;13.00;;
28304;SDS011;15569;42.652;23.040;2023-02-28T13:50:14;32.60;;;13.68;;
28304;SDS011;15569;42.652;23.040;2023-02-28T14:03:55;49.20;;;21.55;;
28304;SDS011;15569;42.652;23.040;2023-02-28T14:06:35;29.33;;;14.18;;
28304;SDS011;15569;42.652;23.040;2023-02-28T14:13:59;41.13;;;16.05;;
28304;SDS011;15569;42.652;23.040;2023-02-28T14:16:26;28.55;;;13.77;;
28304;SDS011;15569;42.652;23.040;2023-02-28T14:39:15;24.70;;;11.32;;
28304;SDS011;15569;42.652;23.040;2023-02-28T14:41:30;33.00;;;12.02;;
28304;SDS011;15569;42.652;23.040;2023-02-28T14:44:19;22.20;;;10.25;;
28304;SDS011;15569;42.652;23.040;2023-02-28T14:46:47;29.50;;;14.73;;
28304;SDS011;15569;42.652;23.040;2023-02-28T14:54:42;27.05;;;12.18;;
28304;SDS011;15569;42.652;23.040;2023-02-28T14:57:26;25.88;;;9.90;;
28304;SDS011;15569;42.652;23.040;2023-02-28T15:00:04;29.48;;;11.93;;
28304;SDS011;15569;42.652;23.040;2023-02-28T15:02:37;31.42;;;11.90;;
28304;SDS011;15569;42.652;23.040;2023-02-28T15:07:34;26.52;;;11.10;;
28304;SDS011;15569;42.652;23.040;2023-02-28T15:10:33;29.92;;;11.30;;
28304;SDS011;15569;42.652;23.040;2023-02-28T15:12:53;27.42;;;12.20;;
28304;SDS011;15569;42.652;23.040;2023-02-28T15:18:22;31.35;;;11.93;;
28304;SDS011;15569;42.652;23.040;2023-02-28T15:20:53;43.72;;;17.67;;
28304;SDS011;15569;42.652;23.040;2023-02-28T15:23:20;63.13;;;24.45;;
28304;SDS011;15569;42.652;23.040;2023-02-28T15:25:47;35.00;;;12.82;;
28304;SDS011;15569;42.652;23.040;2023-02-28T15:28:17;36.00;;;14.02;;
28304;SDS011;15569;42.652;23.040;2023-02-28T15:30:59;33.35;;;13.25;;
28304;SDS011;15569;42.652;23.040;2023-02-28T15:33:27;22.95;;;9.25;;
28304;SDS011;15569;42.652;23.040;2023-02-28T15:36:10;32.50;;;11.40;;
28304;SDS011;15569;42.652;23.040;2023-02-28T15:38:42;31.33;;;12.30;;
28304;SDS011;15569;42.652;23.040;2023-02-28T15:41:25;31.05;;;10.95;;
28304;SDS011;15569;42.652;23.040;2023-02-28T15:46:55;22.90;;;8.10;;
28304;SDS011;15569;42.652;23.040;2023-02-28T15:49:23;28.15;;;7.60;;
28304;SDS011;15569;42.652;23.040;2023-02-28T15:51:50;23.42;;;9.30;;
28304;SDS011;15569;42.652;23.040;2023-02-28T15:54:21;28.88;;;11.82;;
28304;SDS011;15569;42.652;23.040;2023-02-28T15:56:52;30.65;;;13.98;;
28304;SDS011;15569;42.652;23.040;2023-02-28T15:59:23;34.33;;;15.88;;
28304;SDS011;15569;42.652;23.040;2023-02-28T16:07:34;32.42;;;13.82;;
28304;SDS011;15569;42.652;23.040;2023-02-28T16:10:01;42.88;;;19.70;;
28304;SDS011;15569;42.652;23.040;2023-02-28T16:12:27;33.00;;;12.57;;
28304;SDS011;15569;42.652;23.040;2023-02-28T16:14:56;38.42;;;12.73;;
28304;SDS011;15569;42.652;23.040;2023-02-28T16:17:27;33.97;;;13.48;;
28304;SDS011;15569;42.652;23.040;2023-02-28T16:19:55;26.00;;;14.18;;
28304;SDS011;15569;42.652;23.040;2023-02-28T16:22:21;40.15;;;16.60;;
28304;SDS011;15569;42.652;23.040;2023-02-28T16:24:46;37.42;;;16.60;;
28304;SDS011;15569;42.652;23.040;2023-02-28T16:27:15;23.65;;;11.93;;
28304;SDS011;15569;42.652;23.040;2023-02-28T16:29:45;25.92;;;13.73;;
28304;SDS011;15569;42.652;23.040;2023-02-28T16:32:12;22.63;;;13.98;;
28304;SDS011;15569;42.652;23.040;2023-02-28T16:34:39;32.75;;;14.35;;
28304;SDS011;15569;42.652;23.040;2023-02-28T16:37:08;27.08;;;15.02;;
28304;SDS011;15569;42.652;23.040;2023-02-28T16:39:36;27.02;;;13.90;;
28304;SDS011;15569;42.652;23.040;2023-02-28T16:42:02;34.53;;;15.07;;
28304;SDS011;15569;42.652;23.040;2023-02-28T16:44:33;32.67;;;13.63;;
28304;SDS011;15569;42.652;23.040;2023-02-28T16:47:01;31.83;;;16.15;;
28304;SDS011;15569;42.652;23.040;2023-02-28T16:49:27;29.63;;;15.73;;
28304;SDS011;15569;42.652;23.040;2023-02-28T16:51:52;30.33;;;15.00;;
28304;SDS011;15569;42.652;23.040;2023-02-28T16:54:18;29.77;;;14.63;;
28304;SDS011;15569;42.652;23.040;2023-02-28T16:56:44;31.15;;;13.43;;
28304;SDS011;15569;42.652;23.040;2023-02-28T16:59:11;30.13;;;13.40;;
28304;SDS011;15569;42.652;23.040;2023-02-28T17:01:36;29.25;;;15.38;;
28304;SDS011;15569;42.652;23.040;2023-02-28T17:04:02;28.45;;;14.68;;
28304;SDS011;15569;42.652;23.040;2023-02-28T17:06:28;25.77;;;12.60;;
28304;SDS011;15569;42.652;23.040;2023-02-28T17:08:54;29.50;;;15.23;;
28304;SDS011;15569;42.652;23.040;2023-02-28T17:11:20;28.10;;;14.23;;
28304;SDS011;15569;42.652;23.040;2023-02-28T17:13:46;32.13;;;13.55;;
28304;SDS011;15569;42.652;23.040;2023-02-28T17:19:03;24.90;;;13.48;;
28304;SDS011;15569;42.652;23.040;2023-02-28T17:21:31;30.05;;;14.48;;
28304;SDS011;15569;42.652;23.040;2023-02-28T17:23:57;25.45;;;14.25;;
28304;SDS011;15569;42.652;23.040;2023-02-28T17:26:23;29.95;;;17.00;;
28304;SDS011;15569;42.652;23.040;2023-02-28T17:28:52;38.45;;;16.73;;
28304;SDS011;15569;42.652;23.040;2023-02-28T17:31:20;20.15;;;11.70;;
28304;SDS011;15569;42.652;23.040;2023-02-28T17:33:47;20.85;;;11.60;;
28304;SDS011;15569;42.652;23.040;2023-02-28T17:36:16;22.83;;;13.00;;
28304;SDS011;15569;42.652;23.040;2023-02-28T17:38:46;20.52;;;12.18;;
28304;SDS011;15569;42.652;23.040;2023-02-28T17:41:12;26.30;;;12.75;;
28304;SDS011;15569;42.652;23.040;2023-02-28T17:43:38;28.30;;;14.73;;
28304;SDS011;15569;42.652;23.040;2023-02-28T17:46:04;29.77;;;14.45;;
28304;SDS011;15569;42.652;23.040;2023-02-28T17:48:32;22.23;;;12.82;;
28304;SDS011;15569;42.652;23.040;2023-02-28T17:50:58;22.15;;;11.38;;
28304;SDS011;15569;42.652;23.040;2023-02-28T17:53:23;24.35;;;12.95;;
28304;SDS011;15569;42.652;23.040;2023-02-28T17:55:49;27.00;;;12.10;;
28304;SDS011;15569;42.652;23.040;2023-02-28T17:58:15;23.42;;;12.18;;
28304;SDS011;15569;42.652;23.040;2023-02-28T18:00:40;27.50;;;14.02;;
28304;SDS011;15569;42.652;23.040;2023-02-28T18:03:06;19.50;;;10.40;;
28304;SDS011;15569;42.652;23.040;2023-02-28T18:05:31;20.75;;;11.75;;
28304;SDS011;15569;42.652;23.040;2023-02-28T18:07:57;25.60;;;13.15;;
28304;SDS011;15569;42.652;23.040;2023-02-28T18:10:23;22.92;;;11.45;;
28304;SDS011;15569;42.652;23.040;2023-02-28T18:12:49;17.45;;;12.43;;
28304;SDS011;15569;42.652;23.040;2023-02-28T18:15:17;14.73;;;9.55;;
28304;SDS011;15569;42.652;23.040;2023-02-28T18:17:45;17.55;;;9.88;;
28304;SDS011;15569;42.652;23.040;2023-02-28T18:20:11;30.25;;;14.05;;
28304;SDS011;15569;42.652;23.040;2023-02-28T18:22:37;23.00;;;13.38;;
28304;SDS011;15569;42.652;23.040;2023-02-28T18:25:04;21.35;;;11.95;;
28304;SDS011;15569;42.652;23.040;2023-02-28T18:27:30;21.73;;;11.48;;
28304;SDS011;15569;42.652;23.040;2023-02-28T18:29:56;25.27;;;15.43;;
28304;SDS011;15569;42.652;23.040;2023-02-28T18:32:21;25.70;;;14.00;;
28304;SDS011;15569;42.652;23.040;2023-02-28T18:34:47;16.65;;;11.50;;
28304;SDS011;15569;42.652;23.040;2023-02-28T18:37:12;17.67;;;11.95;;
28304;SDS011;15569;42.652;23.040;2023-02-28T18:39:40;18.55;;;11.50;;
28304;SDS011;15569;42.652;23.040;2023-02-28T18:42:05;17.27;;;10.38;;
28304;SDS011;15569;42.652;23.040;2023-02-28T18:44:31;16.02;;;10.57;;
28304;SDS011;15569;42.652;23.040;2023-02-28T18:46:56;16.50;;;9.93;;
28304;SDS011;15569;42.652;23.040;2023-02-28T18:49:21;18.90;;;10.52;;
28304;SDS011;15569;42.652;23.040;2023-02-28T18:51:47;17.83;;;10.88;;
28304;SDS011;15569;42.652;23.040;2023-02-28T18:54:13;16.63;;;9.57;;
28304;SDS011;15569;42.652;23.040;2023-02-28T18:56:39;17.27;;;9.48;;
28304;SDS011;15569;42.652;23.040;2023-02-28T18:59:05;15.45;;;9.27;;
28304;SDS011;15569;42.652;23.040;2023-02-28T19:01:31;21.30;;;10.75;;
28304;SDS011;15569;42.652;23.040;2023-02-28T19:03:58;18.23;;;10.90;;
28304;SDS011;15569;42.652;23.040;2023-02-28T19:06:25;14.63;;;8.85;;
28304;SDS011;15569;42.652;23.040;2023-02-28T19:08:57;17.13;;;10.32;;
28304;SDS011;15569;42.652;23.040;2023-02-28T19:11:24;17.17;;;8.93;;
28304;SDS011;15569;42.652;23.040;2023-02-28T19:13:50;15.65;;;9.60;;
28304;SDS011;15569;42.652;23.040;2023-02-28T19:16:17;14.45;;;9.13;;